RYR9FR EINN-EGCC
Flight info
| Callsign | RYR9FR |
|---|---|
| Flight time | 0h 51m |
| Altitude | 31000 |
| Route | AGINI3A AGINI DCT BOFUM Q37 MALUD |
| Aircraft | B738/M-SDE2E3FGHIRWXY/LB1 |
Departure
| Time | 2026-05-08 21:42 |
|---|---|
| Airport | Shannon Airport (EINN) |
Arrival
| Time | 2026-05-08 22:34 |
|---|---|
| Airport | Manchester Airport (EGCC) |
| Time | Latitude | Longitude | Altitude | Speed | Heading |
|---|---|---|---|---|---|
| 2026-05-08 21:10 | 52.69385 | -8.92283 | 21 ft | 0 kts | 183° |
| 2026-05-08 21:29 | 52.69395 | -8.92282 | 21 ft | 0 kts | 186° |
| 2026-05-08 21:31 | 52.69402 | -8.92281 | 21 ft | 3 kts | 187° |
| 2026-05-08 21:32 | 52.69421 | -8.92276 | 23 ft | 3 kts | 193° |
| 2026-05-08 21:32 | 52.69441 | -8.92268 | 22 ft | 3 kts | 200° |
| 2026-05-08 21:32 | 52.69459 | -8.92255 | 24 ft | 3 kts | 210° |
| 2026-05-08 21:32 | 52.69475 | -8.92237 | 21 ft | 3 kts | 226° |
| 2026-05-08 21:33 | 52.69487 | -8.92212 | 20 ft | 3 kts | 256° |
| 2026-05-08 21:33 | 52.69488 | -8.92190 | 24 ft | 1 kts | 290° |
| 2026-05-08 21:33 | 52.69487 | -8.92188 | 24 ft | 1 kts | 291° |
| 2026-05-08 21:36 | 52.69492 | -8.92207 | 20 ft | 5 kts | 291° |
| 2026-05-08 21:37 | 52.69511 | -8.92278 | 20 ft | 8 kts | 296° |
| 2026-05-08 21:37 | 52.69545 | -8.92365 | 21 ft | 11 kts | 309° |
| 2026-05-08 21:37 | 52.69606 | -8.92468 | 21 ft | 14 kts | 315° |
| 2026-05-08 21:37 | 52.69681 | -8.92590 | 21 ft | 15 kts | 315° |
| 2026-05-08 21:38 | 52.69755 | -8.92709 | 22 ft | 15 kts | 315° |
| 2026-05-08 21:38 | 52.69826 | -8.92824 | 21 ft | 14 kts | 314° |
| 2026-05-08 21:38 | 52.69894 | -8.92933 | 22 ft | 13 kts | 317° |
| 2026-05-08 21:38 | 52.69920 | -8.93062 | 23 ft | 13 kts | 246° |
| 2026-05-08 21:39 | 52.69869 | -8.93180 | 25 ft | 13 kts | 231° |
| 2026-05-08 21:39 | 52.69815 | -8.93291 | 26 ft | 12 kts | 232° |
| 2026-05-08 21:39 | 52.69764 | -8.93400 | 24 ft | 13 kts | 232° |
| 2026-05-08 21:39 | 52.69700 | -8.93535 | 24 ft | 17 kts | 232° |
| 2026-05-08 21:40 | 52.69624 | -8.93698 | 27 ft | 20 kts | 232° |
| 2026-05-08 21:40 | 52.69535 | -8.93886 | 29 ft | 21 kts | 232° |
| 2026-05-08 21:40 | 52.69442 | -8.94083 | 32 ft | 23 kts | 233° |
| 2026-05-08 21:41 | 52.69294 | -8.94294 | 32 ft | 9 kts | 280° |
| 2026-05-08 21:41 | 52.69337 | -8.94306 | 33 ft | 7 kts | 52° |
| 2026-05-08 21:41 | 52.69338 | -8.94304 | 33 ft | 0 kts | 52° |
| 2026-05-08 21:42 | 52.69353 | -8.94272 | 33 ft | 16 kts | 52° |
| 2026-05-08 21:42 | 52.69637 | -8.93671 | 28 ft | 115 kts | 52° |
| 2026-05-08 21:42 | 52.70300 | -8.92287 | 236 ft | 180 kts | 50° |
| 2026-05-08 21:42 | 52.71163 | -8.90503 | 881 ft | 216 kts | 45° |
| 2026-05-08 21:43 | 52.72419 | -8.89016 | 1902 ft | 233 kts | 28° |
| 2026-05-08 21:43 | 52.74004 | -8.87912 | 2511 ft | 261 kts | 24° |
| 2026-05-08 21:43 | 52.75715 | -8.86758 | 3119 ft | 276 kts | 26° |
| 2026-05-08 21:43 | 52.77522 | -8.85414 | 3609 ft | 293 kts | 27° |
| 2026-05-08 21:44 | 52.79400 | -8.83975 | 4246 ft | 304 kts | 26° |
| 2026-05-08 21:44 | 52.81388 | -8.82534 | 4809 ft | 314 kts | 24° |
| 2026-05-08 21:44 | 52.83385 | -8.81171 | 5966 ft | 305 kts | 24° |
| 2026-05-08 21:44 | 52.85296 | -8.79862 | 7261 ft | 291 kts | 23° |
| 2026-05-08 21:45 | 52.87128 | -8.78587 | 8399 ft | 281 kts | 24° |
| 2026-05-08 21:45 | 52.88919 | -8.77322 | 9350 ft | 280 kts | 24° |
| 2026-05-08 21:45 | 52.90721 | -8.76035 | 10096 ft | 285 kts | 24° |
| 2026-05-08 21:45 | 52.92547 | -8.74723 | 10549 ft | 300 kts | 24° |
| 2026-05-08 21:46 | 52.94536 | -8.73286 | 10794 ft | 321 kts | 24° |
| 2026-05-08 21:46 | 52.96617 | -8.71778 | 11364 ft | 330 kts | 23° |
| 2026-05-08 21:46 | 52.98734 | -8.70240 | 12104 ft | 335 kts | 23° |
| 2026-05-08 21:46 | 53.00890 | -8.68672 | 12781 ft | 342 kts | 23° |
| 2026-05-08 21:47 | 53.03081 | -8.67076 | 13575 ft | 346 kts | 23° |
| 2026-05-08 21:47 | 53.05304 | -8.65453 | 14256 ft | 353 kts | 23° |
| 2026-05-08 21:47 | 53.07562 | -8.63804 | 15021 ft | 355 kts | 23° |
| 2026-05-08 21:47 | 53.09807 | -8.62162 | 15780 ft | 359 kts | 23° |
| 2026-05-08 21:48 | 53.12111 | -8.60475 | 16470 ft | 365 kts | 23° |
| 2026-05-08 21:48 | 53.14302 | -8.58285 | 17100 ft | 373 kts | 43° |
| 2026-05-08 21:48 | 53.15861 | -8.54835 | 17822 ft | 376 kts | 65° |
| 2026-05-08 21:48 | 53.16671 | -8.50705 | 18540 ft | 377 kts | 78° |
| 2026-05-08 21:49 | 53.17265 | -8.46413 | 19118 ft | 383 kts | 79° |
| 2026-05-08 21:49 | 53.17834 | -8.42040 | 19687 ft | 389 kts | 80° |
| 2026-05-08 21:49 | 53.18405 | -8.37606 | 20278 ft | 393 kts | 80° |
| 2026-05-08 21:49 | 53.18986 | -8.33126 | 20877 ft | 398 kts | 80° |
| 2026-05-08 21:50 | 53.19582 | -8.28583 | 21445 ft | 403 kts | 79° |
| 2026-05-08 21:50 | 53.20183 | -8.24047 | 22000 ft | 408 kts | 79° |
| 2026-05-08 21:50 | 53.20802 | -8.19396 | 22548 ft | 413 kts | 79° |
| 2026-05-08 21:50 | 53.21431 | -8.14688 | 23110 ft | 418 kts | 79° |
| 2026-05-08 21:51 | 53.22068 | -8.09925 | 23659 ft | 423 kts | 79° |
| 2026-05-08 21:51 | 53.22710 | -8.05110 | 24117 ft | 427 kts | 80° |
| 2026-05-08 21:51 | 53.23357 | -8.00246 | 24595 ft | 430 kts | 80° |
| 2026-05-08 21:51 | 53.24005 | -7.95357 | 25081 ft | 433 kts | 80° |
| 2026-05-08 21:52 | 53.24656 | -7.90432 | 25552 ft | 436 kts | 80° |
| 2026-05-08 21:52 | 53.25310 | -7.85462 | 26002 ft | 440 kts | 80° |
| 2026-05-08 21:52 | 53.25958 | -7.80519 | 26444 ft | 443 kts | 81° |
| 2026-05-08 21:52 | 53.26617 | -7.75479 | 26896 ft | 446 kts | 81° |
| 2026-05-08 21:53 | 53.27276 | -7.70419 | 27474 ft | 445 kts | 81° |
| 2026-05-08 21:53 | 53.27931 | -7.65382 | 28093 ft | 443 kts | 81° |
| 2026-05-08 21:53 | 53.28582 | -7.60355 | 28679 ft | 442 kts | 81° |
| 2026-05-08 21:53 | 53.29229 | -7.55330 | 29220 ft | 443 kts | 81° |
| 2026-05-08 21:54 | 53.29876 | -7.50293 | 29763 ft | 443 kts | 81° |
| 2026-05-08 21:54 | 53.30510 | -7.45335 | 30310 ft | 442 kts | 81° |
| 2026-05-08 21:54 | 53.31149 | -7.40323 | 30781 ft | 441 kts | 82° |
| 2026-05-08 21:54 | 53.31787 | -7.35301 | 31163 ft | 442 kts | 82° |
| 2026-05-08 21:55 | 53.33056 | -7.25247 | 31175 ft | 440 kts | 82° |
| 2026-05-08 21:56 | 53.34940 | -7.10196 | 31179 ft | 441 kts | 82° |
| 2026-05-08 21:56 | 53.36177 | -7.00218 | 31179 ft | 441 kts | 82° |
| 2026-05-08 21:57 | 53.37414 | -6.90171 | 31174 ft | 441 kts | 82° |
| 2026-05-08 21:57 | 53.38644 | -6.80107 | 31169 ft | 441 kts | 82° |
| 2026-05-08 21:58 | 53.39863 | -6.70056 | 31157 ft | 440 kts | 82° |
| 2026-05-08 21:58 | 53.41065 | -6.60071 | 31167 ft | 440 kts | 82° |
| 2026-05-08 21:59 | 53.42267 | -6.50010 | 31185 ft | 441 kts | 82° |
| 2026-05-08 21:59 | 53.43462 | -6.39928 | 31186 ft | 441 kts | 82° |
| 2026-05-08 22:00 | 53.44651 | -6.29829 | 31165 ft | 442 kts | 82° |
| 2026-05-08 22:00 | 53.45824 | -6.19783 | 31169 ft | 442 kts | 82° |
| 2026-05-08 22:01 | 53.46996 | -6.09663 | 31165 ft | 442 kts | 82° |
| 2026-05-08 22:01 | 53.48161 | -5.99525 | 31168 ft | 443 kts | 82° |
| 2026-05-08 22:02 | 53.49320 | -5.89361 | 31164 ft | 443 kts | 82° |
| 2026-05-08 22:02 | 53.50471 | -5.79189 | 31163 ft | 443 kts | 82° |
| 2026-05-08 22:03 | 53.51606 | -5.69077 | 31163 ft | 443 kts | 83° |
| 2026-05-08 22:03 | 53.52545 | -5.60659 | 31162 ft | 443 kts | 83° |
| 2026-05-08 22:04 | 53.53626 | -5.50470 | 31152 ft | 441 kts | 87° |
| 2026-05-08 22:04 | 53.53584 | -5.40306 | 31155 ft | 430 kts | 98° |
| 2026-05-08 22:04 | 53.53415 | -5.35323 | 30919 ft | 425 kts | 98° |
| 2026-05-08 22:05 | 53.53258 | -5.30395 | 30666 ft | 419 kts | 97° |
| 2026-05-08 22:05 | 53.53122 | -5.25577 | 30327 ft | 417 kts | 97° |
| 2026-05-08 22:05 | 53.52995 | -5.20728 | 29957 ft | 414 kts | 97° |
| 2026-05-08 22:05 | 53.52872 | -5.15921 | 29661 ft | 408 kts | 97° |
| 2026-05-08 22:06 | 53.52738 | -5.11178 | 29283 ft | 405 kts | 98° |
| 2026-05-08 22:06 | 53.52590 | -5.06472 | 28944 ft | 401 kts | 98° |
| 2026-05-08 22:06 | 53.52438 | -5.01814 | 28570 ft | 398 kts | 98° |
| 2026-05-08 22:06 | 53.52287 | -4.97179 | 28216 ft | 396 kts | 98° |
| 2026-05-08 22:07 | 53.52138 | -4.92575 | 27859 ft | 394 kts | 98° |
| 2026-05-08 22:07 | 53.51988 | -4.87992 | 27511 ft | 391 kts | 98° |
| 2026-05-08 22:07 | 53.51840 | -4.83500 | 27177 ft | 389 kts | 97° |
| 2026-05-08 22:07 | 53.51690 | -4.78969 | 26819 ft | 388 kts | 97° |
| 2026-05-08 22:08 | 53.51538 | -4.74457 | 26468 ft | 386 kts | 97° |
| 2026-05-08 22:08 | 53.51386 | -4.69966 | 26124 ft | 384 kts | 97° |
| 2026-05-08 22:08 | 53.51233 | -4.65498 | 25784 ft | 383 kts | 97° |
| 2026-05-08 22:08 | 53.51080 | -4.61046 | 25433 ft | 381 kts | 98° |
| 2026-05-08 22:09 | 53.50925 | -4.56609 | 25098 ft | 380 kts | 98° |
| 2026-05-08 22:09 | 53.50769 | -4.52193 | 24761 ft | 378 kts | 98° |
| 2026-05-08 22:09 | 53.50612 | -4.47792 | 24422 ft | 377 kts | 98° |
| 2026-05-08 22:09 | 53.50455 | -4.43458 | 24088 ft | 376 kts | 98° |
| 2026-05-08 22:10 | 53.50296 | -4.39080 | 23746 ft | 375 kts | 98° |
| 2026-05-08 22:10 | 53.50135 | -4.34709 | 23334 ft | 375 kts | 97° |
| 2026-05-08 22:10 | 53.49973 | -4.30350 | 22951 ft | 373 kts | 97° |
| 2026-05-08 22:10 | 53.49811 | -4.26020 | 22595 ft | 371 kts | 97° |
| 2026-05-08 22:11 | 53.49648 | -4.21714 | 22251 ft | 368 kts | 97° |
| 2026-05-08 22:11 | 53.49485 | -4.17432 | 21908 ft | 366 kts | 97° |
| 2026-05-08 22:11 | 53.49321 | -4.13181 | 21559 ft | 364 kts | 97° |
| 2026-05-08 22:11 | 53.49160 | -4.09009 | 21230 ft | 362 kts | 97° |
| 2026-05-08 22:12 | 53.48995 | -4.04808 | 20906 ft | 360 kts | 97° |
| 2026-05-08 22:12 | 53.48829 | -4.00627 | 20574 ft | 358 kts | 97° |
| 2026-05-08 22:12 | 53.48618 | -3.96476 | 20242 ft | 355 kts | 102° |
| 2026-05-08 22:12 | 53.48000 | -3.92513 | 19910 ft | 349 kts | 112° |
| 2026-05-08 22:13 | 53.47196 | -3.88689 | 19588 ft | 347 kts | 114° |
| 2026-05-08 22:13 | 53.46378 | -3.84889 | 19256 ft | 346 kts | 113° |
| 2026-05-08 22:13 | 53.45569 | -3.81095 | 18928 ft | 345 kts | 113° |
| 2026-05-08 22:13 | 53.44781 | -3.77361 | 18604 ft | 344 kts | 113° |
| 2026-05-08 22:14 | 53.43990 | -3.73577 | 18249 ft | 343 kts | 112° |
| 2026-05-08 22:14 | 53.43206 | -3.69804 | 17886 ft | 342 kts | 112° |
| 2026-05-08 22:14 | 53.42423 | -3.66046 | 17540 ft | 340 kts | 112° |
| 2026-05-08 22:14 | 53.41645 | -3.62315 | 17208 ft | 338 kts | 112° |
| 2026-05-08 22:15 | 53.41097 | -3.58481 | 16811 ft | 341 kts | 99° |
| 2026-05-08 22:15 | 53.40919 | -3.54519 | 16435 ft | 341 kts | 96° |
| 2026-05-08 22:15 | 53.40790 | -3.50540 | 16019 ft | 342 kts | 96° |
| 2026-05-08 22:15 | 53.40657 | -3.46559 | 15605 ft | 342 kts | 96° |
| 2026-05-08 22:16 | 53.40507 | -3.42576 | 15185 ft | 342 kts | 96° |
| 2026-05-08 22:16 | 53.40346 | -3.38647 | 14796 ft | 342 kts | 97° |
| 2026-05-08 22:16 | 53.40173 | -3.34673 | 14386 ft | 340 kts | 97° |
| 2026-05-08 22:16 | 53.39998 | -3.30764 | 13972 ft | 332 kts | 97° |
| 2026-05-08 22:17 | 53.39826 | -3.26955 | 13534 ft | 325 kts | 97° |
| 2026-05-08 22:17 | 53.39654 | -3.23230 | 13128 ft | 317 kts | 97° |
| 2026-05-08 22:17 | 53.39485 | -3.19597 | 12767 ft | 309 kts | 97° |
| 2026-05-08 22:17 | 53.39320 | -3.16048 | 12384 ft | 302 kts | 96° |
| 2026-05-08 22:18 | 53.39563 | -3.12589 | 12033 ft | 300 kts | 72° |
| 2026-05-08 22:18 | 53.40472 | -3.09468 | 11706 ft | 298 kts | 62° |
| 2026-05-08 22:18 | 53.41504 | -3.06519 | 11362 ft | 297 kts | 60° |
| 2026-05-08 22:18 | 53.42563 | -3.03559 | 10993 ft | 296 kts | 60° |
| 2026-05-08 22:19 | 53.43615 | -3.00605 | 10638 ft | 294 kts | 60° |
| 2026-05-08 22:19 | 53.44653 | -2.97661 | 10290 ft | 291 kts | 60° |
| 2026-05-08 22:19 | 53.45671 | -2.94752 | 9930 ft | 286 kts | 60° |
| 2026-05-08 22:19 | 53.46667 | -2.91890 | 9557 ft | 281 kts | 61° |
| 2026-05-08 22:20 | 53.47642 | -2.89075 | 9215 ft | 277 kts | 61° |
| 2026-05-08 22:20 | 53.48605 | -2.86287 | 8877 ft | 276 kts | 61° |
| 2026-05-08 22:20 | 53.49567 | -2.83495 | 8548 ft | 276 kts | 61° |
| 2026-05-08 22:20 | 53.50527 | -2.80706 | 8222 ft | 276 kts | 61° |
| 2026-05-08 22:21 | 53.51473 | -2.77954 | 7898 ft | 276 kts | 61° |
| 2026-05-08 22:21 | 53.52430 | -2.75167 | 7568 ft | 275 kts | 62° |
| 2026-05-08 22:21 | 53.53356 | -2.72393 | 7235 ft | 269 kts | 68° |
| 2026-05-08 22:21 | 53.53686 | -2.69411 | 7047 ft | 254 kts | 93° |
| 2026-05-08 22:22 | 53.53557 | -2.66507 | 6892 ft | 245 kts | 98° |
| 2026-05-08 22:22 | 53.53355 | -2.63723 | 6716 ft | 235 kts | 99° |
| 2026-05-08 22:22 | 53.53149 | -2.61040 | 6542 ft | 227 kts | 99° |
| 2026-05-08 22:22 | 53.52953 | -2.58457 | 6367 ft | 218 kts | 99° |
| 2026-05-08 22:23 | 53.52771 | -2.56033 | 6219 ft | 208 kts | 100° |
| 2026-05-08 22:23 | 53.52596 | -2.53670 | 6034 ft | 202 kts | 100° |
| 2026-05-08 22:23 | 53.52425 | -2.51349 | 5858 ft | 198 kts | 100° |
| 2026-05-08 22:23 | 53.52262 | -2.49107 | 5710 ft | 192 kts | 101° |
| 2026-05-08 22:24 | 53.52103 | -2.46925 | 5550 ft | 184 kts | 101° |
| 2026-05-08 22:24 | 53.51952 | -2.44838 | 5387 ft | 178 kts | 101° |
| 2026-05-08 22:24 | 53.51804 | -2.42795 | 5215 ft | 175 kts | 101° |
| 2026-05-08 22:24 | 53.51656 | -2.40762 | 5055 ft | 175 kts | 101° |
| 2026-05-08 22:25 | 53.51509 | -2.38742 | 4886 ft | 175 kts | 101° |
| 2026-05-08 22:25 | 53.51361 | -2.36713 | 4714 ft | 175 kts | 101° |
| 2026-05-08 22:25 | 53.51216 | -2.34716 | 4553 ft | 175 kts | 101° |
| 2026-05-08 22:25 | 53.51068 | -2.32695 | 4385 ft | 174 kts | 101° |
| 2026-05-08 22:26 | 53.50921 | -2.30677 | 4217 ft | 174 kts | 101° |
| 2026-05-08 22:26 | 53.50775 | -2.28667 | 4045 ft | 173 kts | 101° |
| 2026-05-08 22:26 | 53.50629 | -2.26677 | 3886 ft | 172 kts | 101° |
| 2026-05-08 22:26 | 53.50484 | -2.24687 | 3722 ft | 172 kts | 100° |
| 2026-05-08 22:27 | 53.50338 | -2.22697 | 3589 ft | 171 kts | 100° |
| 2026-05-08 22:27 | 53.50192 | -2.20717 | 3531 ft | 172 kts | 100° |
| 2026-05-08 22:27 | 53.50048 | -2.18750 | 3508 ft | 170 kts | 100° |
| 2026-05-08 22:27 | 53.49903 | -2.16770 | 3512 ft | 171 kts | 100° |
| 2026-05-08 22:28 | 53.49757 | -2.14809 | 3518 ft | 172 kts | 100° |
| 2026-05-08 22:28 | 53.49608 | -2.12807 | 3511 ft | 173 kts | 100° |
| 2026-05-08 22:28 | 53.49459 | -2.10807 | 3509 ft | 173 kts | 100° |
| 2026-05-08 22:28 | 53.49309 | -2.08802 | 3512 ft | 173 kts | 100° |
| 2026-05-08 22:29 | 53.49160 | -2.06799 | 3501 ft | 173 kts | 100° |
| 2026-05-08 22:29 | 53.48716 | -2.05012 | 3491 ft | 166 kts | 140° |
| 2026-05-08 22:29 | 53.47656 | -2.04528 | 3495 ft | 165 kts | 192° |
| 2026-05-08 22:29 | 53.46652 | -2.05550 | 3446 ft | 177 kts | 214° |
| 2026-05-08 22:30 | 53.45726 | -2.06882 | 3227 ft | 175 kts | 220° |
| 2026-05-08 22:30 | 53.44864 | -2.08272 | 2983 ft | 170 kts | 221° |
| 2026-05-08 22:30 | 53.44056 | -2.09719 | 2768 ft | 171 kts | 225° |
| 2026-05-08 22:30 | 53.43279 | -2.11259 | 2524 ft | 174 kts | 226° |
| 2026-05-08 22:31 | 53.42512 | -2.12823 | 2289 ft | 174 kts | 226° |
| 2026-05-08 22:31 | 53.41765 | -2.14360 | 2043 ft | 166 kts | 226° |
| 2026-05-08 22:31 | 53.41057 | -2.15818 | 1820 ft | 159 kts | 225° |
| 2026-05-08 22:31 | 53.40369 | -2.17231 | 1721 ft | 154 kts | 226° |
| 2026-05-08 22:32 | 53.39705 | -2.18608 | 1492 ft | 150 kts | 226° |
| 2026-05-08 22:32 | 53.39065 | -2.19936 | 1196 ft | 146 kts | 226° |
| 2026-05-08 22:32 | 53.38409 | -2.21258 | 1002 ft | 148 kts | 227° |
| 2026-05-08 22:32 | 53.37768 | -2.22583 | 792 ft | 149 kts | 228° |
| 2026-05-08 22:33 | 53.37114 | -2.23915 | 594 ft | 144 kts | 230° |
| 2026-05-08 22:33 | 53.36490 | -2.25200 | 392 ft | 142 kts | 230° |
| 2026-05-08 22:33 | 53.35884 | -2.26438 | 265 ft | 131 kts | 231° |
| 2026-05-08 22:33 | 53.35396 | -2.27448 | 257 ft | 85 kts | 231° |
| 2026-05-08 22:34 | 53.35129 | -2.28001 | 239 ft | 42 kts | 231° |
| 2026-05-08 22:34 | 53.34986 | -2.28352 | 237 ft | 20 kts | 246° |
| 2026-05-08 22:34 | 53.34966 | -2.28441 | 236 ft | 6 kts | 253° |
| 2026-05-08 22:34 | 53.34955 | -2.28517 | 234 ft | 7 kts | 258° |
| 2026-05-08 22:35 | 53.34945 | -2.28614 | 232 ft | 9 kts | 260° |
| 2026-05-08 22:35 | 53.34954 | -2.28721 | 232 ft | 10 kts | 310° |
| 2026-05-08 22:35 | 53.35017 | -2.28734 | 230 ft | 10 kts | 31° |
| 2026-05-08 22:35 | 53.35065 | -2.28648 | 232 ft | 10 kts | 52° |
| 2026-05-08 22:36 | 53.35109 | -2.28555 | 231 ft | 11 kts | 52° |
| 2026-05-08 22:36 | 53.35158 | -2.28452 | 230 ft | 12 kts | 51° |
| 2026-05-08 22:36 | 53.35207 | -2.28351 | 232 ft | 11 kts | 51° |
| 2026-05-08 22:36 | 53.35256 | -2.28251 | 235 ft | 11 kts | 50° |
| 2026-05-08 22:37 | 53.35307 | -2.28161 | 237 ft | 11 kts | 45° |
| 2026-05-08 22:37 | 53.35360 | -2.28077 | 240 ft | 10 kts | 44° |
| 2026-05-08 22:37 | 53.35411 | -2.27995 | 242 ft | 10 kts | 44° |
| 2026-05-08 22:37 | 53.35455 | -2.27908 | 245 ft | 10 kts | 68° |
| 2026-05-08 22:38 | 53.35462 | -2.27798 | 248 ft | 9 kts | 71° |
| 2026-05-08 22:38 | 53.35501 | -2.27706 | 247 ft | 10 kts | 52° |
| 2026-05-08 22:38 | 53.35545 | -2.27611 | 247 ft | 10 kts | 52° |
| 2026-05-08 22:38 | 53.35590 | -2.27518 | 250 ft | 10 kts | 51° |
| 2026-05-08 22:39 | 53.35635 | -2.27423 | 252 ft | 12 kts | 51° |
| 2026-05-08 22:39 | 53.35692 | -2.27307 | 252 ft | 13 kts | 51° |
| 2026-05-08 22:39 | 53.35748 | -2.27190 | 252 ft | 12 kts | 51° |
| 2026-05-08 22:39 | 53.35799 | -2.27084 | 251 ft | 11 kts | 53° |
| 2026-05-08 22:40 | 53.35835 | -2.26983 | 252 ft | 9 kts | 58° |
| 2026-05-08 22:40 | 53.35872 | -2.26898 | 253 ft | 9 kts | 51° |
| 2026-05-08 22:40 | 53.35916 | -2.26830 | 251 ft | 9 kts | 10° |
| 2026-05-08 22:40 | 53.35985 | -2.26827 | 247 ft | 9 kts | 34° |
| 2026-05-08 22:41 | 53.36015 | -2.26784 | 247 ft | 3 kts | 7° |
| 2026-05-08 22:41 | 53.36035 | -2.26796 | 247 ft | 3 kts | 324° |
| 2026-05-08 22:41 | 53.36051 | -2.26822 | 247 ft | 3 kts | 314° |
| 2026-05-08 22:41 | 53.36063 | -2.26843 | 247 ft | 0 kts | 314° |